createdAt,value
2018-07-11T00:00:14.672Z,19.60
2018-07-11T00:02:45.186Z,19.60
2018-07-11T00:05:15.483Z,19.50
2018-07-11T00:07:45.964Z,19.50
2018-07-11T00:10:18.116Z,19.50
2018-07-11T00:12:48.440Z,19.40
2018-07-11T00:15:18.828Z,19.40
2018-07-11T00:17:49.249Z,19.40
2018-07-11T00:20:20.867Z,19.30
2018-07-11T00:22:52.497Z,19.30
2018-07-11T00:25:22.888Z,19.30
2018-07-11T00:27:54.249Z,19.20
2018-07-11T00:30:25.545Z,19.20
2018-07-11T00:32:56.607Z,19.10
2018-07-11T00:35:27.060Z,19.10
2018-07-11T00:37:58.046Z,19.00
2018-07-11T00:40:29.709Z,19.00
2018-07-11T00:43:00.981Z,18.90
2018-07-11T00:45:31.485Z,18.90
2018-07-11T00:48:02.639Z,18.90
2018-07-11T00:50:34.373Z,18.80
2018-07-11T00:53:06.438Z,18.80
2018-07-11T00:55:37.909Z,18.70
2018-07-11T00:58:47.897Z,18.70
2018-07-11T01:01:20.202Z,18.60
2018-07-11T01:09:34.315Z,18.60
2018-07-11T01:12:06.173Z,18.20
2018-07-11T01:14:36.606Z,18.20
2018-07-11T01:18:16.294Z,18.20
2018-07-11T01:20:46.923Z,18.20
2018-07-11T01:23:19.115Z,18.20
2018-07-11T01:25:49.420Z,18.10
2018-07-11T01:28:19.921Z,18.10
2018-07-11T01:30:50.322Z,18.20
2018-07-11T01:33:21.318Z,18.20
2018-07-11T01:35:51.734Z,18.20
2018-07-11T01:38:22.065Z,18.10
2018-07-11T01:40:52.882Z,18.10
2018-07-11T01:43:23.594Z,18.10
2018-07-11T01:45:54.572Z,18.10
2018-07-11T01:48:25.410Z,18.10
2018-07-11T01:50:56.183Z,18.10
2018-07-11T01:53:26.765Z,18.00
2018-07-11T01:55:57.408Z,18.00
2018-07-11T01:58:29.347Z,18.00
2018-07-11T02:01:00.109Z,18.00
2018-07-11T02:03:30.908Z,17.90
2018-07-11T02:06:01.524Z,17.90
2018-07-11T02:08:32.746Z,17.90
2018-07-11T02:11:03.285Z,17.90
2018-07-11T02:13:33.780Z,17.80
2018-07-11T02:16:04.125Z,17.80
2018-07-11T02:18:36.810Z,17.80
2018-07-11T02:21:08.340Z,17.80
2018-07-11T02:23:40.162Z,17.80
2018-07-11T02:26:10.660Z,17.70
2018-07-11T02:28:41.082Z,17.70
2018-07-11T02:31:11.244Z,17.70
2018-07-11T02:33:41.495Z,17.70
2018-07-11T02:36:12.558Z,17.70
2018-07-11T02:38:42.786Z,17.60
2018-07-11T02:41:13.324Z,17.60
2018-07-11T02:43:43.820Z,17.60
2018-07-11T02:46:15.117Z,17.60
2018-07-11T02:48:45.594Z,17.50
2018-07-11T02:51:16.200Z,17.50
2018-07-11T02:53:46.493Z,17.50
2018-07-11T02:56:16.728Z,17.50
2018-07-11T02:58:47.268Z,17.50
2018-07-11T03:01:17.298Z,17.40
2018-07-11T03:03:47.488Z,17.40
2018-07-11T03:06:19.030Z,17.40
2018-07-11T03:08:49.393Z,17.40
2018-07-11T03:11:20.195Z,17.40
2018-07-11T03:13:50.471Z,17.40
2018-07-11T03:16:20.699Z,17.30
2018-07-11T03:18:51.011Z,17.30
2018-07-11T03:21:21.704Z,17.30
2018-07-11T03:23:52.112Z,17.30
2018-07-11T03:26:22.485Z,17.30
2018-07-11T03:28:52.861Z,17.30
2018-07-11T03:31:23.497Z,17.30
2018-07-11T03:33:53.925Z,17.30
2018-07-11T03:36:24.052Z,17.20
2018-07-11T03:38:54.702Z,17.20
2018-07-11T03:41:26.269Z,17.20
2018-07-11T03:43:57.658Z,17.20
2018-07-11T03:46:28.481Z,17.20
2018-07-11T03:48:58.892Z,17.20
2018-07-11T03:51:29.320Z,17.20
2018-07-11T03:54:00.269Z,17.20
2018-07-11T03:56:30.010Z,17.10
2018-07-11T03:59:00.473Z,17.10
2018-07-11T04:01:30.746Z,17.10
2018-07-11T04:04:01.761Z,17.10
2018-07-11T04:06:31.867Z,17.10
2018-07-11T04:09:02.121Z,17.10
2018-07-11T04:11:32.762Z,17.10
2018-07-11T04:14:03.003Z,17.10
2018-07-11T04:16:34.128Z,17.10
2018-07-11T04:19:04.613Z,17.10
2018-07-11T04:21:34.670Z,17.10
2018-07-11T04:24:05.048Z,17.10
2018-07-11T04:26:35.291Z,17.10
2018-07-11T04:29:06.426Z,17.10
2018-07-11T04:31:40.454Z,17.10
2018-07-11T04:34:10.866Z,17.10
2018-07-11T04:36:40.992Z,17.10
2018-07-11T04:39:11.297Z,17.10
2018-07-11T04:41:41.596Z,17.10
2018-07-11T04:44:12.154Z,17.10
2018-07-11T04:46:42.993Z,17.20
2018-07-11T04:49:14.040Z,17.20
2018-07-11T04:51:45.931Z,17.20
2018-07-11T04:54:17.654Z,17.20
2018-07-11T04:56:47.899Z,17.20
2018-07-11T04:59:19.149Z,17.30
2018-07-11T05:01:49.592Z,17.30
2018-07-11T05:04:20.320Z,17.30
2018-07-11T05:06:50.453Z,17.40
2018-07-11T05:09:21.487Z,17.40
2018-07-11T05:11:52.161Z,17.50
2018-07-11T05:14:22.425Z,17.60
2018-07-11T05:16:52.696Z,17.70
2018-07-11T05:19:23.636Z,17.80
2018-07-11T05:21:54.225Z,17.90
2018-07-11T05:24:24.698Z,18.00
2018-07-11T05:27:06.309Z,18.10
2018-07-11T05:29:36.421Z,18.20
2018-07-11T05:32:07.548Z,18.30
2018-07-11T05:34:37.798Z,18.30
2018-07-11T05:37:08.123Z,18.40
2018-07-11T05:39:38.293Z,18.50
2018-07-11T05:42:08.519Z,18.50
2018-07-11T05:44:39.299Z,18.60
2018-07-11T05:47:09.361Z,18.60
2018-07-11T05:49:39.757Z,18.70
2018-07-11T05:52:10.139Z,18.70
2018-07-11T05:54:40.284Z,18.80
2018-07-11T05:57:10.558Z,18.80
2018-07-11T05:59:40.874Z,18.90
2018-07-11T06:02:11.618Z,18.90
2018-07-11T06:04:42.275Z,19.00
2018-07-11T06:07:12.603Z,19.10
2018-07-11T06:09:43.373Z,19.20
2018-07-11T06:12:14.761Z,19.40
2018-07-11T06:14:45.886Z,19.50
2018-07-11T06:17:16.570Z,19.70
2018-07-11T06:19:47.250Z,19.80
2018-07-11T06:22:17.026Z,19.90
2018-07-11T06:24:47.267Z,20.00
2018-07-11T06:27:18.151Z,20.10
2018-07-11T06:29:48.506Z,20.20
2018-07-11T06:32:18.908Z,20.20
2018-07-11T06:34:49.303Z,20.30
2018-07-11T06:37:20.226Z,20.40
2018-07-11T06:39:52.193Z,20.40
2018-07-11T06:42:24.088Z,20.50
2018-07-11T06:44:56.027Z,20.60
2018-07-11T06:47:33.240Z,20.90
2018-07-11T06:50:03.802Z,21.10
2018-07-11T06:52:33.861Z,21.20
2018-07-11T06:55:04.639Z,21.40
2018-07-11T06:57:35.293Z,21.60
2018-07-11T07:00:09.082Z,21.70
2018-07-11T07:02:39.380Z,21.90
2018-07-11T07:05:09.561Z,22.00
2018-07-11T07:07:39.781Z,22.20
2018-07-11T07:10:15.680Z,22.40
2018-07-11T07:12:54.071Z,22.60
2018-07-11T07:15:32.043Z,22.70
2018-07-11T07:18:07.290Z,22.70
2018-07-11T07:20:40.255Z,22.60
2018-07-11T07:23:13.890Z,22.50
2018-07-11T07:25:46.497Z,22.50
2018-07-11T07:28:16.806Z,22.30
2018-07-11T07:30:50.478Z,22.10
2018-07-11T07:33:21.826Z,22.00
2018-07-11T07:35:51.944Z,21.90
2018-07-11T07:38:22.629Z,21.70
2018-07-11T07:40:52.957Z,21.70
2018-07-11T07:43:25.262Z,21.70
2018-07-11T07:45:55.826Z,21.80
2018-07-11T07:48:26.598Z,21.90
2018-07-11T07:50:57.225Z,22.00
2018-07-11T07:53:27.685Z,22.00
2018-07-11T07:55:58.022Z,22.10
2018-07-11T07:58:28.953Z,22.20
2018-07-11T08:01:02.112Z,22.10
2018-07-11T08:03:35.937Z,22.00
2018-07-11T08:06:06.701Z,21.90
2018-07-11T08:08:37.011Z,21.80
2018-07-11T08:11:07.323Z,21.80
2018-07-11T08:13:38.239Z,21.70
2018-07-11T08:16:08.678Z,21.60
2018-07-11T08:18:39.424Z,21.50
2018-07-11T08:21:09.750Z,21.40
2018-07-11T08:23:56.378Z,21.40
2018-07-11T08:26:43.077Z,21.40
2018-07-11T08:31:37.388Z,21.40
2018-07-11T08:34:24.973Z,21.20
2018-07-11T08:39:20.628Z,21.20
2018-07-11T08:42:16.298Z,21.20
2018-07-11T08:45:05.157Z,21.10
2018-07-11T08:49:56.025Z,21.10
2018-07-11T08:55:17.962Z,21.20
2018-07-11T08:58:15.665Z,21.50
2018-07-11T09:03:07.723Z,21.80
2018-07-11T09:08:00.165Z,22.20
2018-07-11T09:12:48.831Z,22.40
2018-07-11T09:15:41.231Z,22.20
2018-07-11T09:21:09.715Z,22.20
2018-07-11T09:29:38.006Z,22.80
2018-07-11T09:32:08.717Z,22.90
2018-07-11T09:34:39.281Z,23.10
2018-07-11T09:37:10.302Z,23.20
2018-07-11T09:39:41.357Z,23.40
2018-07-11T09:42:11.453Z,23.60
2018-07-11T09:44:41.722Z,23.80
2018-07-11T09:47:17.794Z,23.90
2018-07-11T09:49:48.573Z,24.00
2018-07-11T09:52:18.915Z,24.10
2018-07-11T09:54:49.652Z,24.20
2018-07-11T09:57:20.468Z,24.30
2018-07-11T09:59:50.918Z,24.40
2018-07-11T10:02:22.404Z,24.50
2018-07-11T10:04:53.614Z,24.60
2018-07-11T10:07:24.317Z,24.60
2018-07-11T10:09:54.471Z,24.60
2018-07-11T10:12:26.109Z,24.70
2018-07-11T10:14:56.592Z,24.70
2018-07-11T10:17:26.405Z,24.80
2018-07-11T10:19:57.590Z,24.80
2018-07-11T10:22:29.180Z,24.80
2018-07-11T10:24:59.687Z,24.80
2018-07-11T10:27:30.187Z,24.70
2018-07-11T10:30:00.566Z,24.70
2018-07-11T10:32:30.810Z,24.80
2018-07-11T10:35:03.991Z,24.80
2018-07-11T10:37:34.203Z,24.80
2018-07-11T10:40:04.618Z,24.80
2018-07-11T10:42:35.881Z,24.90
2018-07-11T10:45:06.202Z,24.90
2018-07-11T10:47:37.201Z,25.00
2018-07-11T10:50:08.503Z,25.10
2018-07-11T10:52:39.419Z,25.20
2018-07-11T10:55:10.084Z,25.20
2018-07-11T10:57:41.433Z,25.20
2018-07-11T11:00:12.417Z,25.10
2018-07-11T11:02:43.958Z,25.10
2018-07-11T11:05:14.517Z,25.20
2018-07-11T11:07:45.331Z,25.20
2018-07-11T11:10:16.138Z,25.30
2018-07-11T11:12:46.533Z,25.20
2018-07-11T11:15:16.777Z,25.30
2018-07-11T11:17:47.343Z,25.30
2018-07-11T11:20:17.633Z,25.40
2018-07-11T11:22:47.719Z,25.40
2018-07-11T11:25:18.178Z,25.40
2018-07-11T11:27:48.399Z,25.50
2018-07-11T11:30:19.017Z,25.60
2018-07-11T11:32:49.265Z,25.70
2018-07-11T11:35:21.237Z,25.70
2018-07-11T11:37:51.714Z,25.70
2018-07-11T11:40:24.219Z,25.80
2018-07-11T11:42:54.471Z,25.90
2018-07-11T11:45:24.691Z,26.00
2018-07-11T11:47:58.803Z,26.10
2018-07-11T11:50:29.975Z,26.10
2018-07-11T11:53:01.022Z,26.20
2018-07-11T11:55:31.389Z,26.30
2018-07-11T11:58:01.620Z,26.30
2018-07-11T12:00:31.931Z,26.40
2018-07-11T12:03:02.126Z,26.50
2018-07-11T12:05:32.381Z,26.60
2018-07-11T12:08:03.961Z,26.80
2018-07-11T12:10:34.281Z,26.90
2018-07-11T12:13:04.829Z,26.90
2018-07-11T12:15:35.243Z,27.00
2018-07-11T12:18:05.558Z,26.90
2018-07-11T12:20:35.824Z,26.90
2018-07-11T12:23:06.097Z,26.90
2018-07-11T12:25:36.562Z,26.90
2018-07-11T12:28:06.805Z,27.00
2018-07-11T12:30:37.845Z,27.10
2018-07-11T12:33:08.316Z,27.20
2018-07-11T12:35:38.839Z,27.20
2018-07-11T12:38:09.367Z,27.30
2018-07-11T12:40:40.460Z,27.30
2018-07-11T12:43:10.593Z,27.40
2018-07-11T12:45:40.804Z,27.40
2018-07-11T12:48:16.130Z,27.40
2018-07-11T12:50:46.674Z,27.40
2018-07-11T12:53:17.757Z,27.50
2018-07-11T12:55:48.727Z,27.50
2018-07-11T12:58:20.093Z,27.50
2018-07-11T13:00:51.077Z,27.60
2018-07-11T13:03:21.314Z,27.60
2018-07-11T13:05:52.001Z,27.60
2018-07-11T13:08:22.835Z,27.60
2018-07-11T13:10:53.141Z,27.70
2018-07-11T13:13:23.633Z,27.70
2018-07-11T13:15:54.000Z,27.80
2018-07-11T13:18:24.340Z,28.00
2018-07-11T13:20:54.587Z,28.10
2018-07-11T13:23:25.251Z,28.20
2018-07-11T13:25:55.578Z,28.20
2018-07-11T13:28:26.707Z,28.40
2018-07-11T13:30:57.494Z,28.50
2018-07-11T13:33:27.988Z,28.70
2018-07-11T13:35:58.150Z,28.80
2018-07-11T13:38:28.389Z,29.00
2018-07-11T13:40:58.992Z,29.20
2018-07-11T13:43:29.577Z,29.30
2018-07-11T13:46:00.036Z,29.60
2018-07-11T13:48:30.533Z,29.80
2018-07-11T13:51:00.688Z,29.90
2018-07-11T13:53:30.945Z,30.10
2018-07-11T13:56:01.415Z,30.20
2018-07-11T13:58:32.146Z,30.50
2018-07-11T14:01:03.596Z,31.10
2018-07-11T14:03:34.206Z,31.40
2018-07-11T14:06:04.498Z,31.60
2018-07-11T14:08:34.903Z,31.80
2018-07-11T14:11:05.900Z,33.00
2018-07-11T14:13:35.626Z,33.70
2018-07-11T14:16:06.564Z,34.30
2018-07-11T14:18:37.269Z,35.40
2018-07-11T14:21:07.738Z,35.90
2018-07-11T14:23:40.048Z,36.30
2018-07-11T14:26:11.298Z,37.40
2018-07-11T14:28:49.731Z,38.80
2018-07-11T14:31:37.288Z,40.20
2018-07-11T14:34:10.405Z,41.50
2018-07-11T14:36:40.782Z,41.90
2018-07-11T14:39:11.210Z,42.20
2018-07-11T14:41:41.319Z,41.90
2018-07-11T14:44:11.709Z,41.60
2018-07-11T14:46:41.844Z,41.30
2018-07-11T14:49:12.230Z,40.70
2018-07-11T14:51:42.882Z,40.10
2018-07-11T14:54:20.549Z,39.40
2018-07-11T14:56:52.526Z,38.80
2018-07-11T14:59:23.462Z,38.30
2018-07-11T15:01:55.854Z,38.00
2018-07-11T15:04:26.318Z,37.70
2018-07-11T15:06:56.638Z,38.50
2018-07-11T15:09:28.016Z,40.00
2018-07-11T15:11:58.736Z,41.50
2018-07-11T15:14:29.099Z,43.00
2018-07-11T15:17:01.376Z,43.60
2018-07-11T15:19:32.654Z,43.70
2018-07-11T15:22:04.533Z,44.10
2018-07-11T15:24:35.080Z,44.60
2018-07-11T15:27:05.609Z,44.30
2018-07-11T15:29:36.082Z,43.90
2018-07-11T15:32:07.414Z,44.10
2018-07-11T15:34:39.011Z,43.70
2018-07-11T15:37:09.911Z,43.00
2018-07-11T15:39:42.152Z,43.20
2018-07-11T15:42:13.066Z,43.30
2018-07-11T15:44:55.730Z,42.80
2018-07-11T15:47:26.277Z,42.60
2018-07-11T15:49:57.927Z,42.30
2018-07-11T15:52:29.151Z,41.70
2018-07-11T15:55:00.963Z,41.00
2018-07-11T15:58:39.573Z,40.20
2018-07-11T16:01:53.366Z,39.10
2018-07-11T16:04:46.085Z,38.40
2018-07-11T16:07:17.434Z,38.10
2018-07-11T16:09:57.379Z,37.80
2018-07-11T16:12:28.278Z,37.70
2018-07-11T16:14:59.083Z,37.40
2018-07-11T16:17:30.240Z,37.20
2018-07-11T16:20:01.413Z,36.90
2018-07-11T16:22:32.029Z,36.60
2018-07-11T16:25:18.507Z,36.30
2018-07-11T16:27:49.357Z,36.00
2018-07-11T16:30:20.297Z,35.70
2018-07-11T16:32:50.686Z,35.40
2018-07-11T16:35:20.979Z,35.10
2018-07-11T16:37:51.143Z,34.80
2018-07-11T16:40:21.660Z,34.60
2018-07-11T16:42:53.148Z,34.30
2018-07-11T16:45:23.784Z,34.10
2018-07-11T16:47:54.473Z,33.80
2018-07-11T16:50:26.044Z,33.50
2018-07-11T16:52:57.437Z,33.30
2018-07-11T16:55:29.661Z,33.10
2018-07-11T16:58:00.248Z,32.90
2018-07-11T17:00:34.524Z,32.80
2018-07-11T17:03:09.531Z,32.70
2018-07-11T17:05:57.965Z,32.60
2018-07-11T17:08:33.600Z,32.60
2018-07-11T17:11:36.549Z,32.60
2018-07-11T17:14:08.518Z,32.50
2018-07-11T17:16:47.689Z,32.50
2018-07-11T17:19:26.982Z,32.40
2018-07-11T17:22:00.599Z,32.20
2018-07-11T17:24:33.742Z,32.10
2018-07-11T17:27:04.178Z,31.90
2018-07-11T17:29:35.301Z,31.80
2018-07-11T17:32:10.242Z,31.60
2018-07-11T17:34:41.365Z,31.50
2018-07-11T17:37:12.205Z,31.40
2018-07-11T17:40:23.998Z,31.20
2018-07-11T17:43:32.127Z,31.00
2018-07-11T17:46:09.193Z,30.90
2018-07-11T17:49:25.305Z,30.80
2018-07-11T17:52:13.284Z,30.70
2018-07-11T17:55:25.244Z,30.60
2018-07-11T17:58:09.270Z,30.50
2018-07-11T18:00:59.517Z,30.40
2018-07-11T18:03:51.782Z,30.40
2018-07-11T18:10:19.510Z,30.30
2018-07-11T18:13:09.356Z,30.20
2018-07-11T18:17:10.152Z,30.20
2018-07-11T18:20:28.197Z,30.10
2018-07-11T18:24:16.705Z,30.00
2018-07-11T18:27:10.644Z,30.00
2018-07-11T18:30:00.673Z,30.00
2018-07-11T18:33:04.947Z,30.00
2018-07-11T18:35:58.603Z,30.00
2018-07-11T18:38:47.631Z,30.00
2018-07-11T18:43:38.869Z,30.00
2018-07-11T18:50:37.775Z,29.90
2018-07-11T18:53:24.324Z,29.70
2018-07-11T18:57:13.883Z,29.60
2018-07-11T19:01:06.329Z,29.40
2018-07-11T19:07:57.580Z,29.20
2018-07-11T19:11:07.780Z,28.80
2018-07-11T19:13:56.747Z,28.60
2018-07-11T19:18:48.048Z,28.50
2018-07-11T19:21:29.745Z,28.20
2018-07-11T19:24:12.851Z,28.10
2018-07-11T19:27:09.796Z,28.00
2018-07-11T19:30:28.620Z,27.80
2018-07-11T19:33:21.469Z,27.70
2018-07-11T19:36:50.421Z,27.50
2018-07-11T19:39:48.026Z,27.40
2018-07-11T19:43:03.039Z,27.20
2018-07-11T19:55:52.962Z,26.30
2018-07-11T19:58:25.111Z,26.10
2018-07-11T20:00:56.330Z,26.00
2018-07-11T20:03:27.889Z,25.90
2018-07-11T20:06:00.287Z,25.80
2018-07-11T20:08:31.533Z,25.70
2018-07-11T20:11:04.811Z,25.60
2018-07-11T20:13:38.858Z,25.50
2018-07-11T20:16:15.202Z,25.40
2018-07-11T20:18:47.401Z,25.30
2018-07-11T20:21:22.367Z,25.20
2018-07-11T20:23:56.285Z,25.10
2018-07-11T20:26:28.888Z,25.00
2018-07-11T20:29:00.969Z,24.90
2018-07-11T20:31:32.092Z,24.80
2018-07-11T20:34:04.131Z,24.80
2018-07-11T20:36:35.467Z,24.70
2018-07-11T20:39:07.344Z,24.60
2018-07-11T20:41:40.450Z,24.50
2018-07-11T20:44:13.770Z,24.40
2018-07-11T20:46:45.751Z,24.30
2018-07-11T20:49:25.764Z,24.20
2018-07-11T20:51:58.554Z,24.10
2018-07-11T20:54:30.272Z,24.10
2018-07-11T20:57:02.563Z,24.00
2018-07-11T20:59:49.857Z,23.90
2018-07-11T21:02:36.815Z,23.80
2018-07-11T21:06:32.135Z,23.70
2018-07-11T21:09:49.138Z,23.50
2018-07-11T21:13:34.255Z,23.40
2018-07-11T21:18:20.559Z,23.20
2018-07-11T21:20:51.142Z,23.00
2018-07-11T21:23:21.897Z,22.90
2018-07-11T21:25:51.975Z,22.80
2018-07-11T21:28:22.476Z,22.80
2018-07-11T21:30:52.581Z,22.70
2018-07-11T21:33:23.588Z,22.70
2018-07-11T21:35:53.770Z,22.60
2018-07-11T21:38:24.123Z,22.60
2018-07-11T21:40:54.801Z,22.50
2018-07-11T21:43:25.046Z,22.40
2018-07-11T21:45:56.088Z,22.40
2018-07-11T21:48:26.649Z,22.30
2018-07-11T21:50:57.626Z,22.20
2018-07-11T21:53:28.383Z,22.20
2018-07-11T21:55:58.612Z,22.20
2018-07-11T21:58:29.863Z,22.10
2018-07-11T22:01:06.305Z,22.10
2018-07-11T22:03:36.866Z,22.10
2018-07-11T22:06:08.185Z,22.00
2018-07-11T22:08:39.076Z,22.00
2018-07-11T22:11:09.632Z,22.00
2018-07-11T22:13:40.493Z,21.90
2018-07-11T22:16:11.327Z,21.90
2018-07-11T22:18:46.026Z,21.90
2018-07-11T22:21:15.608Z,21.80
2018-07-11T22:23:44.983Z,21.80
2018-07-11T22:26:13.784Z,21.80
2018-07-11T22:28:41.898Z,21.80
2018-07-11T22:31:10.846Z,21.70
2018-07-11T22:33:39.372Z,21.70
2018-07-11T22:36:07.816Z,21.70
2018-07-11T22:38:36.954Z,21.70
2018-07-11T22:41:04.900Z,21.60
2018-07-11T22:43:33.008Z,21.60
2018-07-11T22:46:01.222Z,21.60
2018-07-11T22:48:29.397Z,21.60
2018-07-11T22:50:57.538Z,21.50
2018-07-11T22:53:25.583Z,21.50
2018-07-11T22:55:56.133Z,21.40
2018-07-11T22:58:25.578Z,21.40
2018-07-11T23:00:56.959Z,21.40
2018-07-11T23:03:25.223Z,21.40
2018-07-11T23:05:53.317Z,21.40
2018-07-11T23:08:21.399Z,21.40
2018-07-11T23:10:50.514Z,21.40
2018-07-11T23:13:18.893Z,21.50
2018-07-11T23:15:48.196Z,21.40
2018-07-11T23:18:20.098Z,21.50
2018-07-11T23:20:50.693Z,21.40
2018-07-11T23:23:19.084Z,21.50
2018-07-11T23:25:48.381Z,21.40
2018-07-11T23:28:16.826Z,21.40
2018-07-11T23:30:45.168Z,21.40
2018-07-11T23:33:13.279Z,21.40
2018-07-11T23:35:42.283Z,21.40
2018-07-11T23:38:10.693Z,21.40
2018-07-11T23:40:38.861Z,21.40
2018-07-11T23:43:06.829Z,21.40
2018-07-11T23:45:35.383Z,21.40
2018-07-11T23:48:03.754Z,21.40
2018-07-11T23:50:33.958Z,21.30
2018-07-11T23:53:04.009Z,21.30
2018-07-11T23:55:32.095Z,21.20
2018-07-11T23:58:00.336Z,21.20
